createdAt,value
2023-04-05T00:00:10.613Z,67.51
2023-04-05T00:05:12.884Z,66.83
2023-04-05T00:10:14.551Z,67.43
2023-04-05T00:15:16.766Z,67.28
2023-04-05T00:20:18.700Z,67.33
2023-04-05T00:25:21.870Z,67.19
2023-04-05T00:30:23.919Z,67.04
2023-04-05T00:35:28.037Z,66.90
2023-04-05T00:40:29.728Z,67.15
2023-04-05T00:45:31.877Z,66.90
2023-04-05T00:50:33.821Z,67.42
2023-04-05T00:55:36.400Z,66.64
2023-04-05T01:00:39.808Z,67.00
2023-04-05T01:05:51.669Z,66.34
2023-04-05T01:10:57.287Z,66.82
2023-04-05T01:15:59.272Z,66.94
2023-04-05T01:21:20.933Z,67.07
2023-04-05T01:26:44.114Z,67.01
2023-04-05T01:31:56.838Z,67.15
2023-04-05T01:37:06.190Z,67.53
2023-04-05T01:42:08.546Z,67.88
2023-04-05T01:47:10.231Z,67.16
2023-04-05T01:52:11.973Z,67.68
2023-04-05T01:57:13.575Z,67.84
2023-04-05T02:02:15.648Z,67.65
2023-04-05T02:07:17.253Z,68.61
2023-04-05T02:12:18.862Z,69.01
2023-04-05T02:17:21.900Z,69.30
2023-04-05T02:22:23.526Z,69.03
2023-04-05T02:27:25.397Z,69.59
2023-04-05T02:32:28.714Z,69.51
2023-04-05T02:37:30.926Z,69.98
2023-04-05T02:42:32.509Z,69.90
2023-04-05T02:47:34.681Z,69.87
2023-04-05T02:52:37.676Z,70.37
2023-04-05T02:57:41.168Z,70.55
2023-04-05T03:02:56.775Z,70.88
2023-04-05T03:07:59.564Z,71.22
2023-04-05T03:13:05.033Z,71.31
2023-04-05T03:18:06.751Z,71.27
2023-04-05T03:23:09.291Z,71.41
2023-04-05T03:28:12.398Z,71.13
2023-04-05T03:33:19.473Z,71.53
2023-04-05T03:38:24.478Z,72.35
2023-04-05T03:43:43.051Z,71.80
2023-04-05T03:48:44.743Z,71.67
2023-04-05T03:53:46.356Z,71.97
2023-04-05T03:58:48.645Z,71.38
2023-04-05T04:03:52.912Z,71.70
2023-04-05T04:08:54.647Z,71.47
2023-04-05T04:13:56.893Z,72.26
2023-04-05T04:19:09.099Z,71.50
2023-04-05T04:24:40.735Z,71.86
2023-04-05T04:30:04.103Z,71.41
2023-04-05T04:35:41.112Z,71.14
2023-04-05T04:41:06.733Z,70.77
2023-04-05T04:46:19.135Z,71.08
2023-04-05T04:51:38.290Z,70.46
2023-04-05T04:56:39.872Z,70.62
2023-04-05T05:01:42.289Z,70.57
2023-04-05T05:06:45.380Z,70.29
2023-04-05T05:11:47.167Z,70.17
2023-04-05T05:16:48.807Z,71.09
2023-04-05T05:21:53.950Z,69.71
2023-04-05T05:26:55.712Z,68.55
2023-04-05T05:31:57.371Z,68.12
2023-04-05T05:36:58.994Z,67.27
2023-04-05T05:42:00.704Z,67.36
2023-04-05T05:47:03.027Z,66.84
2023-04-05T05:52:05.055Z,66.29
2023-04-05T05:57:06.676Z,65.59
2023-04-05T06:02:08.485Z,65.09
2023-04-05T06:07:11.166Z,64.21
2023-04-05T06:12:12.950Z,64.64
2023-04-05T06:17:14.592Z,63.11
2023-04-05T06:22:16.542Z,63.31
2023-04-05T06:27:18.375Z,63.98
2023-04-05T06:32:20.733Z,63.06
2023-04-05T06:37:22.352Z,62.34
2023-04-05T06:42:25.392Z,60.97
2023-04-05T06:47:35.754Z,62.14
2023-04-05T06:52:38.027Z,60.38
2023-04-05T06:57:39.675Z,61.17
2023-04-05T07:02:41.346Z,61.17
2023-04-05T07:07:44.486Z,60.38
2023-04-05T07:12:46.127Z,59.93
2023-04-05T07:17:47.845Z,60.49
2023-04-05T07:22:49.539Z,58.70
2023-04-05T07:27:52.748Z,57.60
2023-04-05T07:32:55.366Z,58.20
2023-04-05T07:37:57.312Z,57.16
2023-04-05T07:42:59.034Z,57.32
2023-04-05T07:48:00.701Z,56.83
2023-04-05T07:53:02.563Z,56.48
2023-04-05T07:58:04.163Z,56.90
2023-04-05T08:03:06.150Z,55.45
2023-04-05T08:08:11.082Z,55.10
2023-04-05T08:13:12.795Z,55.39
2023-04-05T08:18:14.499Z,55.46
2023-04-05T08:23:16.090Z,54.90
2023-04-05T08:28:17.892Z,55.10
2023-04-05T08:33:19.750Z,55.26
2023-04-05T08:38:21.637Z,53.62
2023-04-05T08:43:28.412Z,53.91
2023-04-05T08:48:35.014Z,53.36
2023-04-05T08:53:36.755Z,52.78
2023-04-05T08:58:39.572Z,51.88
2023-04-05T09:03:42.986Z,52.34
2023-04-05T09:08:44.911Z,51.38
2023-04-05T09:13:46.551Z,51.03
2023-04-05T09:18:49.155Z,50.64
2023-04-05T09:23:55.669Z,51.67
2023-04-05T09:28:57.333Z,51.47
2023-04-05T09:34:03.728Z,49.75
2023-04-05T09:39:09.977Z,49.96
2023-04-05T09:44:11.616Z,48.39
2023-04-05T09:49:14.423Z,47.92
2023-04-05T09:54:16.440Z,48.49
2023-04-05T09:59:18.250Z,47.32
2023-04-05T10:04:20.045Z,46.42
2023-04-05T10:09:22.109Z,45.61
2023-04-05T10:14:23.984Z,45.64
2023-04-05T10:20:01.053Z,44.12
2023-04-05T10:25:13.688Z,44.12
2023-04-05T10:30:16.576Z,44.90
2023-04-05T10:35:41.532Z,42.51
2023-04-05T10:40:48.525Z,43.42
2023-04-05T10:45:53.449Z,43.51
2023-04-05T10:50:56.587Z,42.27
2023-04-05T10:55:59.166Z,44.07
2023-04-05T11:01:01.953Z,42.40
2023-04-05T11:06:19.103Z,41.37
2023-04-05T11:11:22.864Z,44.08
2023-04-05T11:16:38.558Z,42.20
2023-04-05T11:21:40.471Z,42.64
2023-04-05T11:26:48.192Z,42.20
2023-04-05T11:32:06.198Z,41.29
2023-04-05T11:37:07.993Z,40.09
2023-04-05T11:42:16.031Z,39.81
2023-04-05T11:47:21.639Z,40.63
2023-04-05T11:52:23.478Z,40.90
2023-04-05T11:57:25.313Z,40.80
2023-04-05T12:02:27.046Z,41.27
2023-04-05T12:07:32.065Z,42.59
2023-04-05T12:12:41.971Z,42.07
2023-04-05T12:17:51.948Z,41.06
2023-04-05T12:22:55.658Z,41.60
2023-04-05T12:27:57.350Z,40.78
2023-04-05T12:32:59.217Z,41.03
2023-04-05T12:38:03.147Z,40.44
2023-04-05T12:43:09.254Z,40.33
2023-04-05T12:48:15.813Z,40.42
2023-04-05T12:53:20.500Z,40.56
2023-04-05T12:58:37.922Z,40.56
2023-04-05T13:03:44.034Z,41.43
2023-04-05T13:08:45.941Z,41.49
2023-04-05T13:13:47.562Z,40.36
2023-04-05T13:18:49.203Z,42.65
2023-04-05T13:23:50.887Z,41.48
2023-04-05T13:28:52.505Z,40.58
2023-04-05T13:33:54.302Z,40.37
2023-04-05T13:38:56.259Z,39.93
2023-04-05T13:43:59.761Z,40.51
2023-04-05T13:49:02.822Z,40.51
2023-04-05T13:54:04.545Z,41.14
2023-04-05T13:59:06.509Z,41.15
2023-04-05T14:04:08.284Z,41.51
2023-04-05T14:09:10.019Z,40.01
2023-04-05T14:14:11.953Z,40.41
2023-04-05T14:19:13.706Z,40.48
2023-04-05T14:24:15.453Z,39.60
2023-04-05T14:29:17.984Z,41.13
2023-04-05T14:34:19.816Z,41.40
2023-04-05T14:39:21.781Z,41.75
2023-04-05T14:44:24.415Z,41.58
2023-04-05T14:49:26.352Z,40.56
2023-04-05T14:54:28.385Z,39.72
2023-04-05T14:59:31.010Z,41.00
2023-04-05T15:04:32.949Z,39.65
2023-04-05T15:09:34.716Z,41.68
2023-04-05T15:14:36.690Z,41.74
2023-04-05T15:19:38.372Z,42.33
2023-04-05T15:24:41.770Z,41.72
2023-04-05T15:29:43.661Z,42.11
2023-04-05T15:34:46.131Z,43.36
2023-04-05T15:39:48.014Z,44.45
2023-04-05T15:44:50.271Z,44.06
2023-04-05T15:49:52.164Z,43.63
2023-04-05T15:54:53.938Z,44.54
2023-04-05T15:59:55.674Z,43.66
2023-04-05T16:04:57.466Z,44.66
2023-04-05T16:09:59.216Z,44.74
2023-04-05T16:15:00.943Z,45.08
2023-04-05T16:20:02.757Z,44.88
2023-04-05T16:25:04.968Z,44.85
2023-04-05T16:30:07.718Z,45.43
2023-04-05T16:35:10.139Z,45.62
2023-04-05T16:40:12.766Z,45.83
2023-04-05T16:45:14.481Z,46.13
2023-04-05T16:50:16.224Z,46.29
2023-04-05T16:55:17.888Z,46.19
2023-04-05T17:00:20.219Z,46.56
2023-04-05T17:05:21.914Z,47.27
2023-04-05T17:10:23.849Z,47.13
2023-04-05T17:15:26.320Z,47.91
2023-04-05T17:20:28.157Z,47.86
2023-04-05T17:25:31.324Z,48.54
2023-04-05T17:30:33.420Z,48.61
2023-04-05T17:35:35.509Z,49.36
2023-04-05T17:40:37.308Z,49.58
2023-04-05T17:45:39.381Z,49.74
2023-04-05T17:50:41.184Z,49.54
2023-04-05T17:55:43.443Z,49.76
2023-04-05T18:00:45.170Z,49.31
2023-04-05T18:05:54.268Z,48.91
2023-04-05T18:10:57.949Z,48.93
2023-04-05T18:16:00.387Z,49.50
2023-04-05T18:21:02.234Z,49.35
2023-04-05T18:26:07.978Z,49.80
2023-04-05T18:31:10.223Z,50.35
2023-04-05T18:36:12.898Z,50.14
2023-04-05T18:41:15.242Z,50.60
2023-04-05T18:46:18.630Z,51.29
2023-04-05T18:51:24.911Z,51.31
2023-04-05T18:56:29.938Z,51.25
2023-04-05T19:01:31.946Z,51.79
2023-04-05T19:06:34.755Z,51.92
2023-04-05T19:11:36.429Z,52.76
2023-04-05T19:16:38.237Z,52.27
2023-04-05T19:21:39.992Z,52.45
2023-04-05T19:26:43.031Z,53.06
2023-04-05T19:31:44.955Z,53.00
2023-04-05T19:36:46.692Z,52.85
2023-04-05T19:41:48.402Z,53.74
2023-04-05T19:46:50.344Z,53.22
2023-04-05T19:51:56.140Z,53.67
2023-04-05T19:57:01.190Z,54.58
2023-04-05T20:02:19.072Z,54.62
2023-04-05T20:07:21.166Z,55.83
2023-04-05T20:12:23.408Z,56.90
2023-04-05T20:22:32.699Z,55.70
2023-04-05T20:27:34.377Z,56.03
2023-04-05T20:32:36.118Z,56.46
2023-04-05T20:37:37.815Z,57.12
2023-04-05T20:42:39.676Z,58.53
2023-04-05T20:47:41.602Z,57.65
2023-04-05T20:52:43.344Z,56.78
2023-04-05T20:57:45.003Z,57.47
2023-04-05T21:02:47.201Z,57.99
2023-04-05T21:07:49.209Z,58.54
2023-04-05T21:12:52.277Z,58.51
2023-04-05T21:17:56.037Z,58.13
2023-04-05T21:22:59.223Z,58.02
2023-04-05T21:28:01.351Z,58.31
2023-04-05T21:33:03.052Z,59.42
2023-04-05T21:38:05.521Z,58.70
2023-04-05T21:43:07.303Z,59.74
2023-04-05T21:48:09.047Z,60.06
2023-04-05T21:53:10.923Z,60.32
2023-04-05T21:58:12.913Z,60.19
2023-04-05T22:03:14.659Z,60.56
2023-04-05T22:08:17.150Z,61.72
2023-04-05T22:13:18.987Z,61.21
2023-04-05T22:18:20.659Z,61.63
2023-04-05T22:23:22.379Z,61.83
2023-04-05T22:28:24.163Z,61.15
2023-04-05T22:33:25.955Z,61.79
2023-04-05T22:38:29.333Z,62.20
2023-04-05T22:43:31.168Z,62.22
2023-04-05T22:48:32.961Z,63.52
2023-04-05T22:53:34.626Z,62.35
2023-04-05T22:58:36.736Z,63.24
2023-04-05T23:03:38.481Z,62.98
2023-04-05T23:08:40.266Z,63.39
2023-04-05T23:13:41.944Z,62.80
2023-04-05T23:18:43.742Z,62.58
2023-04-05T23:23:45.404Z,63.00
2023-04-05T23:28:47.099Z,63.27
2023-04-05T23:33:48.962Z,63.18
2023-04-05T23:38:51.059Z,63.71
2023-04-05T23:43:53.036Z,65.00
2023-04-05T23:48:54.713Z,64.29
2023-04-05T23:53:56.429Z,64.65
2023-04-05T23:58:58.176Z,64.05
